createdAt,value
2019-03-01T00:01:23.975Z,10.12
2019-03-01T00:03:55.329Z,10.09
2019-03-01T00:06:28.116Z,10.20
2019-03-01T00:09:32.561Z,10.26
2019-03-01T00:12:14.862Z,10.16
2019-03-01T00:15:11.486Z,10.10
2019-03-01T00:18:06.118Z,10.20
2019-03-01T00:20:55.141Z,10.28
2019-03-01T00:23:51.607Z,10.06
2019-03-01T00:26:34.608Z,10.08
2019-03-01T00:29:27.987Z,10.40
2019-03-01T00:32:21.238Z,10.14
2019-03-01T00:34:57.089Z,10.10
2019-03-01T00:37:58.562Z,10.39
2019-03-01T00:40:51.151Z,10.55
2019-03-01T00:43:45.826Z,10.31
2019-03-01T00:46:12.554Z,10.11
2019-03-01T00:48:39.305Z,9.94
2019-03-01T00:51:06.043Z,10.23
2019-03-01T00:53:32.772Z,10.22
2019-03-01T00:55:59.627Z,10.19
2019-03-01T00:58:26.337Z,10.15
2019-03-01T01:00:53.076Z,10.22
2019-03-01T01:03:19.801Z,10.32
2019-03-01T01:05:46.521Z,10.19
2019-03-01T01:08:13.266Z,10.15
2019-03-01T01:10:39.983Z,10.44
2019-03-01T01:13:06.730Z,10.21
2019-03-01T01:15:33.450Z,10.19
2019-03-01T01:18:00.178Z,10.25
2019-03-01T01:20:27.141Z,10.11
2019-03-01T01:22:53.860Z,9.86
2019-03-01T01:25:20.718Z,9.88
2019-03-01T01:27:47.455Z,9.92
2019-03-01T01:30:14.195Z,10.06
2019-03-01T01:32:40.938Z,9.97
2019-03-01T01:35:07.668Z,9.89
2019-03-01T01:37:34.458Z,9.89
2019-03-01T01:40:01.177Z,9.98
2019-03-01T01:42:27.922Z,9.91
2019-03-01T01:44:54.647Z,10.11
2019-03-01T01:47:21.395Z,10.20
2019-03-01T01:49:48.102Z,9.71
2019-03-01T01:52:14.848Z,9.88
2019-03-01T01:54:41.579Z,9.82
2019-03-01T01:57:08.310Z,9.86
2019-03-01T01:59:35.058Z,9.69
2019-03-01T02:02:01.797Z,9.76
2019-03-01T02:04:28.505Z,9.79
2019-03-01T02:06:55.242Z,9.74
2019-03-01T02:09:23.706Z,9.77
2019-03-01T02:11:50.439Z,9.96
2019-03-01T02:14:17.175Z,10.15
2019-03-01T02:16:43.883Z,9.99
2019-03-01T02:19:10.626Z,9.84
2019-03-01T02:21:37.362Z,9.67
2019-03-01T02:24:04.115Z,9.65
2019-03-01T02:26:30.840Z,9.88
2019-03-01T02:28:57.577Z,9.89
2019-03-01T02:31:24.302Z,9.92
2019-03-01T02:33:51.061Z,9.92
2019-03-01T02:36:17.763Z,9.79
2019-03-01T02:38:44.535Z,9.78
2019-03-01T02:41:11.465Z,9.66
2019-03-01T02:43:38.204Z,9.81
2019-03-01T02:46:04.934Z,9.83
2019-03-01T02:48:31.658Z,9.78
2019-03-01T02:50:58.379Z,9.65
2019-03-01T02:53:25.119Z,9.73
2019-03-01T02:55:51.829Z,9.64
2019-03-01T02:58:18.564Z,9.65
2019-03-01T03:00:45.300Z,9.79
2019-03-01T03:03:12.032Z,9.73
2019-03-01T03:05:54.096Z,9.70
2019-03-01T03:08:20.827Z,9.87
2019-03-01T03:10:47.554Z,9.75
2019-03-01T03:13:14.295Z,9.63
2019-03-01T03:15:43.000Z,9.61
2019-03-01T03:18:09.743Z,9.52
2019-03-01T03:20:36.462Z,9.66
2019-03-01T03:23:03.219Z,9.75
2019-03-01T03:25:29.948Z,10.01
2019-03-01T03:27:56.682Z,10.16
2019-03-01T03:30:23.433Z,9.86
2019-03-01T03:32:50.124Z,9.73
2019-03-01T03:35:16.993Z,9.71
2019-03-01T03:37:43.714Z,9.77
2019-03-01T03:40:10.500Z,9.77
2019-03-01T03:42:37.223Z,9.69
2019-03-01T03:45:04.502Z,9.68
2019-03-01T03:47:31.247Z,9.72
2019-03-01T03:49:57.978Z,9.78
2019-03-01T03:52:24.711Z,9.78
2019-03-01T03:54:51.438Z,9.69
2019-03-01T03:57:18.152Z,9.56
2019-03-01T03:59:44.989Z,9.62
2019-03-01T04:02:11.706Z,9.48
2019-03-01T04:04:38.447Z,9.59
2019-03-01T04:07:05.210Z,9.53
2019-03-01T04:09:31.898Z,9.55
2019-03-01T04:11:58.618Z,9.59
2019-03-01T04:14:25.403Z,9.73
2019-03-01T04:16:52.102Z,9.65
2019-03-01T04:19:18.846Z,9.56
2019-03-01T04:21:46.563Z,9.50
2019-03-01T04:24:13.318Z,9.50
2019-03-01T04:26:40.043Z,9.53
2019-03-01T04:29:06.792Z,9.53
2019-03-01T04:31:33.518Z,9.51
2019-03-01T04:34:00.245Z,9.60
2019-03-01T04:36:26.970Z,9.46
2019-03-01T04:38:53.722Z,9.55
2019-03-01T04:41:20.439Z,9.49
2019-03-01T04:43:47.209Z,9.51
2019-03-01T04:46:13.913Z,9.59
2019-03-01T04:48:40.622Z,9.56
2019-03-01T04:51:07.370Z,9.60
2019-03-01T04:53:34.089Z,9.48
2019-03-01T04:56:00.818Z,9.58
2019-03-01T04:58:27.558Z,9.66
2019-03-01T05:00:54.290Z,9.70
2019-03-01T05:03:21.050Z,9.66
2019-03-01T05:05:47.777Z,9.66
2019-03-01T05:08:14.523Z,9.65
2019-03-01T05:10:41.242Z,9.78
2019-03-01T05:13:07.982Z,9.72
2019-03-01T05:15:34.705Z,9.76
2019-03-01T05:18:01.454Z,9.62
2019-03-01T05:20:30.508Z,9.55
2019-03-01T05:22:54.918Z,9.47
2019-03-01T05:25:21.632Z,9.40
2019-03-01T05:27:48.459Z,9.86
2019-03-01T05:30:15.195Z,9.84
2019-03-01T05:32:41.937Z,9.70
2019-03-01T05:35:08.678Z,9.52
2019-03-01T05:37:35.430Z,9.52
2019-03-01T05:40:02.151Z,9.39
2019-03-01T05:42:28.894Z,9.52
2019-03-01T05:44:55.610Z,9.55
2019-03-01T05:47:22.366Z,9.39
2019-03-01T05:49:49.110Z,9.64
2019-03-01T05:52:15.855Z,9.56
2019-03-01T05:54:42.590Z,9.64
2019-03-01T05:57:09.334Z,9.67
2019-03-01T05:59:36.071Z,9.25
2019-03-01T06:02:23.934Z,9.09
2019-03-01T06:04:54.902Z,9.05
2019-03-01T06:07:58.154Z,9.05
2019-03-01T06:10:35.481Z,9.06
2019-03-01T06:13:34.485Z,8.99
2019-03-01T06:16:16.473Z,9.01
2019-03-01T06:19:11.331Z,9.25
2019-03-01T06:21:51.022Z,9.14
2019-03-01T06:24:30.302Z,8.99
2019-03-01T06:27:18.418Z,9.06
2019-03-01T06:30:08.202Z,8.85
2019-03-01T06:32:48.766Z,9.09
2019-03-01T06:35:32.534Z,9.19
2019-03-01T06:39:00.666Z,9.26
2019-03-01T06:41:53.921Z,9.31
2019-03-01T06:44:31.168Z,9.29
2019-03-01T06:47:07.270Z,9.79
2019-03-01T06:49:39.798Z,9.57
2019-03-01T06:52:06.530Z,9.35
2019-03-01T06:54:33.269Z,9.13
2019-03-01T06:57:00.106Z,9.25
2019-03-01T06:59:26.859Z,9.29
2019-03-01T07:01:53.586Z,9.31
2019-03-01T07:04:21.020Z,9.09
2019-03-01T07:06:47.729Z,8.95
2019-03-01T07:09:14.483Z,9.03
2019-03-01T07:11:41.195Z,9.08
2019-03-01T07:14:07.946Z,8.75
2019-03-01T07:16:34.655Z,8.71
2019-03-01T07:19:01.414Z,8.56
2019-03-01T07:21:28.130Z,8.53
2019-03-01T07:23:54.932Z,8.33
2019-03-01T07:26:21.602Z,8.46
2019-03-01T07:28:48.346Z,8.45
2019-03-01T07:31:15.075Z,8.44
2019-03-01T07:33:41.818Z,8.38
2019-03-01T07:36:08.530Z,8.36
2019-03-01T07:38:35.270Z,8.43
2019-03-01T07:41:01.986Z,8.50
2019-03-01T07:43:28.739Z,8.48
2019-03-01T07:45:55.458Z,8.56
2019-03-01T07:48:22.206Z,8.45
2019-03-01T07:50:48.950Z,8.64
2019-03-01T07:53:15.693Z,8.50
2019-03-01T07:55:44.016Z,8.57
2019-03-01T07:58:09.127Z,8.66
2019-03-01T08:00:35.862Z,8.69
2019-03-01T08:03:02.589Z,8.67
2019-03-01T08:05:29.335Z,8.65
2019-03-01T08:07:59.664Z,8.73
2019-03-01T08:10:23.372Z,8.85
2019-03-01T08:12:49.514Z,8.83
2019-03-01T08:15:16.265Z,8.79
2019-03-01T08:17:43.031Z,8.84
2019-03-01T08:20:11.721Z,8.99
2019-03-01T08:22:48.129Z,8.97
2019-03-01T08:25:06.121Z,9.04
2019-03-01T08:27:32.831Z,8.97
2019-03-01T08:29:59.566Z,8.97
2019-03-01T08:32:27.367Z,8.96
2019-03-01T08:34:53.760Z,8.99
2019-03-01T08:37:19.771Z,8.96
2019-03-01T08:39:46.567Z,9.14
2019-03-01T08:42:13.283Z,9.06
2019-03-01T08:44:40.022Z,9.09
2019-03-01T08:47:06.778Z,9.39
2019-03-01T08:49:33.543Z,9.35
2019-03-01T08:52:01.525Z,9.46
2019-03-01T08:54:27.641Z,9.53
2019-03-01T08:56:53.738Z,9.26
2019-03-01T08:59:20.481Z,9.30
2019-03-01T09:01:47.194Z,9.32
2019-03-01T09:04:17.337Z,9.23
2019-03-01T09:06:41.721Z,9.19
2019-03-01T09:09:08.688Z,9.25
2019-03-01T09:11:34.241Z,9.25
2019-03-01T09:14:00.982Z,9.27
2019-03-01T09:16:27.709Z,9.30
2019-03-01T09:18:54.466Z,9.35
2019-03-01T09:21:21.188Z,9.40
2019-03-01T09:23:51.107Z,9.45
2019-03-01T09:26:16.738Z,9.36
2019-03-01T09:28:41.373Z,9.31
2019-03-01T09:31:08.111Z,9.34
2019-03-01T09:33:34.838Z,9.29
2019-03-01T09:36:07.606Z,9.29
2019-03-01T09:38:34.318Z,9.25
2019-03-01T09:41:04.079Z,9.31
2019-03-01T09:43:28.535Z,9.41
2019-03-01T09:45:54.579Z,9.38
2019-03-01T09:48:21.286Z,9.41
2019-03-01T09:50:48.030Z,9.45
2019-03-01T09:53:14.801Z,9.45
2019-03-01T09:55:41.530Z,9.68
2019-03-01T09:58:08.620Z,9.89
2019-03-01T10:00:35.624Z,9.98
2019-03-01T10:03:02.363Z,9.98
2019-03-01T10:05:29.102Z,10.05
2019-03-01T10:07:55.818Z,10.01
2019-03-01T10:10:24.630Z,10.07
2019-03-01T10:12:51.352Z,10.24
2019-03-01T10:15:18.091Z,10.33
2019-03-01T10:17:44.814Z,10.57
2019-03-01T10:20:11.606Z,10.91
2019-03-01T10:22:38.322Z,10.65
2019-03-01T10:25:05.533Z,10.43
2019-03-01T10:27:32.249Z,10.37
2019-03-01T10:29:58.970Z,10.43
2019-03-01T10:32:25.702Z,10.62
2019-03-01T10:34:52.410Z,10.58
2019-03-01T10:37:19.681Z,10.68
2019-03-01T10:39:52.810Z,10.93
2019-03-01T10:42:13.146Z,10.77
2019-03-01T10:44:39.862Z,10.85
2019-03-01T10:47:06.586Z,10.94
2019-03-01T10:49:33.308Z,10.86
2019-03-01T10:52:00.042Z,11.07
2019-03-01T10:54:26.760Z,11.25
2019-03-01T10:56:53.486Z,11.23
2019-03-01T10:59:20.210Z,11.09
2019-03-01T11:01:46.946Z,11.17
2019-03-01T11:04:13.666Z,10.96
2019-03-01T11:06:40.414Z,10.99
2019-03-01T11:09:07.170Z,10.94
2019-03-01T11:11:34.028Z,10.83
2019-03-01T11:14:00.758Z,10.67
2019-03-01T11:16:27.565Z,10.79
2019-03-01T11:18:54.285Z,10.71
2019-03-01T11:21:21.026Z,10.62
2019-03-01T11:23:47.771Z,10.70
2019-03-01T11:26:14.498Z,11.01
2019-03-01T11:28:41.210Z,10.73
2019-03-01T11:31:07.946Z,10.90
2019-03-01T11:33:34.677Z,10.84
2019-03-01T11:36:01.435Z,10.85
2019-03-01T11:38:28.150Z,10.90
2019-03-01T11:40:55.918Z,11.26
2019-03-01T11:43:21.604Z,11.31
2019-03-01T11:45:48.317Z,11.38
2019-03-01T11:48:15.089Z,11.52
2019-03-01T11:50:41.818Z,11.24
2019-03-01T11:53:08.549Z,11.24
2019-03-01T11:55:35.258Z,11.24
2019-03-01T11:58:01.982Z,11.22
2019-03-01T12:00:28.703Z,11.30
2019-03-01T12:02:55.435Z,11.27
2019-03-01T12:05:22.169Z,11.36
2019-03-01T12:07:48.914Z,11.25
2019-03-01T12:10:19.390Z,11.64
2019-03-01T12:12:46.123Z,11.54
2019-03-01T12:15:12.867Z,11.67
2019-03-01T12:17:39.602Z,11.44
2019-03-01T12:20:08.503Z,11.37
2019-03-01T12:22:35.266Z,11.43
2019-03-01T12:25:01.987Z,11.54
2019-03-01T12:27:28.802Z,11.55
2019-03-01T12:29:55.522Z,11.64
2019-03-01T12:32:22.255Z,11.81
2019-03-01T12:34:49.000Z,11.64
2019-03-01T12:37:15.730Z,11.84
2019-03-01T12:39:42.458Z,11.90
2019-03-01T12:42:09.193Z,12.04
2019-03-01T12:44:35.910Z,12.09
2019-03-01T12:47:02.683Z,12.06
2019-03-01T12:49:29.410Z,12.27
2019-03-01T12:51:56.142Z,12.50
2019-03-01T12:54:22.862Z,13.02
2019-03-01T12:56:49.593Z,13.22
2019-03-01T12:59:16.330Z,13.02
2019-03-01T13:01:43.070Z,12.70
2019-03-01T13:04:09.786Z,12.94
2019-03-01T13:06:38.990Z,12.95
2019-03-01T13:09:05.875Z,12.95
2019-03-01T13:11:32.597Z,12.91
2019-03-01T13:13:59.334Z,13.14
2019-03-01T13:16:26.745Z,13.07
2019-03-01T13:18:52.805Z,12.77
2019-03-01T13:21:19.524Z,12.93
2019-03-01T13:23:46.273Z,13.01
2019-03-01T13:26:13.002Z,13.12
2019-03-01T13:28:39.761Z,13.45
2019-03-01T13:31:08.252Z,13.43
2019-03-01T13:33:34.835Z,13.18
2019-03-01T13:36:03.297Z,12.90
2019-03-01T13:38:26.687Z,12.95
2019-03-01T13:40:54.237Z,12.73
2019-03-01T13:43:20.147Z,12.34
2019-03-01T13:45:47.423Z,12.24
2019-03-01T13:48:15.698Z,11.92
2019-03-01T13:50:41.496Z,11.78
2019-03-01T13:53:07.150Z,11.64
2019-03-01T13:55:33.966Z,11.67
2019-03-01T13:58:00.806Z,11.65
2019-03-01T14:00:27.521Z,11.59
2019-03-01T14:02:54.254Z,11.50
2019-03-01T14:05:20.962Z,11.24
2019-03-01T14:07:47.705Z,11.14
2019-03-01T14:10:16.323Z,11.07
2019-03-01T14:12:43.054Z,11.11
2019-03-01T14:15:11.836Z,11.10
2019-03-01T14:17:38.567Z,11.22
2019-03-01T14:20:07.610Z,11.25
2019-03-01T14:22:34.350Z,11.29
2019-03-01T14:25:02.346Z,11.37
2019-03-01T14:27:29.499Z,11.30
2019-03-01T14:29:54.626Z,11.27
2019-03-01T14:32:21.923Z,11.21
2019-03-01T14:34:48.783Z,11.19
2019-03-01T14:37:15.190Z,11.11
2019-03-01T14:39:42.106Z,11.12
2019-03-01T14:42:10.944Z,11.08
2019-03-01T14:44:34.974Z,11.06
2019-03-01T14:47:01.765Z,11.17
2019-03-01T14:49:28.503Z,11.27
2019-03-01T14:51:55.233Z,11.32
2019-03-01T14:54:21.970Z,11.39
2019-03-01T14:56:53.278Z,11.52
2019-03-01T14:59:24.133Z,11.54
2019-03-01T15:02:03.161Z,11.70
2019-03-01T15:04:28.971Z,11.49
2019-03-01T15:06:55.076Z,11.41
2019-03-01T15:09:20.435Z,11.39
2019-03-01T15:11:48.807Z,11.47
2019-03-01T15:14:13.784Z,11.38
2019-03-01T15:16:43.300Z,11.31
2019-03-01T15:19:08.077Z,11.14
2019-03-01T15:21:34.015Z,11.27
2019-03-01T15:24:01.459Z,11.21
2019-03-01T15:26:27.961Z,11.26
2019-03-01T15:28:55.894Z,11.18
2019-03-01T15:31:21.927Z,11.11
2019-03-01T15:33:48.683Z,11.11
2019-03-01T15:36:17.885Z,11.09
2019-03-01T15:38:42.126Z,11.10
2019-03-01T15:41:08.855Z,10.97
2019-03-01T15:43:35.605Z,10.93
2019-03-01T15:46:02.314Z,10.98
2019-03-01T15:48:29.050Z,11.00
2019-03-01T15:50:59.093Z,10.97
2019-03-01T15:53:25.031Z,11.07
2019-03-01T15:55:50.534Z,11.04
2019-03-01T15:58:17.242Z,11.03
2019-03-01T16:00:43.973Z,11.14
2019-03-01T16:03:10.698Z,11.10
2019-03-01T16:05:38.251Z,11.26
2019-03-01T16:08:05.544Z,11.34
2019-03-01T16:10:32.966Z,11.30
2019-03-01T16:12:57.701Z,11.27
2019-03-01T16:15:24.557Z,11.10
2019-03-01T16:17:51.277Z,11.14
2019-03-01T16:20:18.014Z,10.98
2019-03-01T16:22:44.730Z,10.93
2019-03-01T16:25:11.926Z,10.68
2019-03-01T16:27:38.774Z,10.53
2019-03-01T16:30:07.924Z,10.37
2019-03-01T16:32:34.646Z,10.26
2019-03-01T16:35:01.383Z,10.42
2019-03-01T16:37:28.404Z,10.47
2019-03-01T16:39:56.224Z,10.53
2019-03-01T16:42:21.850Z,10.44
2019-03-01T16:44:48.595Z,10.25
2019-03-01T16:47:15.302Z,10.19
2019-03-01T16:49:42.030Z,10.12
2019-03-01T16:52:08.750Z,10.20
2019-03-01T16:54:35.502Z,10.14
2019-03-01T16:57:02.210Z,10.21
2019-03-01T16:59:29.001Z,10.17
2019-03-01T17:01:55.667Z,10.13
2019-03-01T17:04:27.110Z,9.98
2019-03-01T17:06:50.264Z,9.94
2019-03-01T17:09:16.630Z,9.90
2019-03-01T17:11:42.570Z,10.15
2019-03-01T17:14:09.297Z,9.97
2019-03-01T17:16:36.058Z,9.88
2019-03-01T17:19:02.861Z,9.69
2019-03-01T17:21:29.636Z,9.56
2019-03-01T17:23:56.383Z,9.46
2019-03-01T17:26:26.242Z,9.44
2019-03-01T17:28:49.945Z,9.47
2019-03-01T17:31:16.578Z,9.38
2019-03-01T17:33:45.195Z,9.06
2019-03-01T17:36:13.024Z,8.96
2019-03-01T17:38:36.805Z,8.98
2019-03-01T17:41:06.223Z,8.92
2019-03-01T17:43:32.802Z,8.83
2019-03-01T17:45:57.952Z,8.79
2019-03-01T17:48:23.869Z,8.72
2019-03-01T17:50:50.611Z,8.57
2019-03-01T17:53:17.342Z,8.47
2019-03-01T17:55:44.086Z,8.43
2019-03-01T17:58:10.918Z,8.35
2019-03-01T18:00:37.677Z,8.30
2019-03-01T18:03:04.402Z,8.27
2019-03-01T18:05:31.145Z,8.32
2019-03-01T18:07:59.843Z,8.27
2019-03-01T18:10:24.717Z,8.31
2019-03-01T18:12:53.135Z,8.27
2019-03-01T18:15:18.227Z,8.21
2019-03-01T18:17:45.671Z,8.20
2019-03-01T18:20:12.405Z,8.19
2019-03-01T18:22:39.146Z,8.18
2019-03-01T18:25:07.278Z,8.14
2019-03-01T18:27:34.018Z,7.97
2019-03-01T18:30:00.736Z,7.83
2019-03-01T18:32:27.475Z,7.83
2019-03-01T18:34:54.199Z,7.76
2019-03-01T18:37:20.931Z,7.91
2019-03-01T18:39:47.657Z,7.93
2019-03-01T18:42:14.395Z,7.92
2019-03-01T18:44:41.120Z,8.02
2019-03-01T18:47:07.881Z,8.30
2019-03-01T18:49:34.702Z,8.28
2019-03-01T18:52:01.449Z,8.24
2019-03-01T18:54:28.294Z,8.11
2019-03-01T18:56:55.034Z,8.19
2019-03-01T18:59:24.831Z,8.23
2019-03-01T19:01:48.490Z,8.33
2019-03-01T19:04:16.714Z,8.32
2019-03-01T19:06:42.034Z,8.24
2019-03-01T19:09:08.774Z,8.33
2019-03-01T19:11:37.940Z,8.38
2019-03-01T19:14:02.687Z,8.46
2019-03-01T19:16:29.445Z,8.49
2019-03-01T19:18:55.762Z,8.61
2019-03-01T19:21:22.496Z,8.68
2019-03-01T19:23:49.217Z,8.68
2019-03-01T19:26:16.022Z,8.90
2019-03-01T19:28:42.739Z,8.94
2019-03-01T19:31:09.462Z,9.01
2019-03-01T19:33:37.887Z,8.92
2019-03-01T19:36:03.544Z,9.02
2019-03-01T19:38:29.650Z,9.20
2019-03-01T19:40:56.450Z,9.65
2019-03-01T19:43:23.182Z,9.34
2019-03-01T19:45:49.897Z,9.15
2019-03-01T19:48:16.638Z,9.00
2019-03-01T19:50:43.635Z,8.76
2019-03-01T19:53:10.138Z,8.89
2019-03-01T19:55:36.914Z,8.75
2019-03-01T19:58:03.702Z,8.68
2019-03-01T20:00:30.466Z,8.70
2019-03-01T20:02:57.210Z,8.64
2019-03-01T20:05:27.914Z,8.66
2019-03-01T20:07:51.771Z,8.63
2019-03-01T20:10:18.249Z,8.53
2019-03-01T20:12:44.981Z,8.52
2019-03-01T20:15:14.109Z,8.59
2019-03-01T20:17:44.389Z,8.60
2019-03-01T20:20:09.082Z,8.55
2019-03-01T20:22:35.806Z,8.50
2019-03-01T20:25:02.665Z,8.49
2019-03-01T20:27:29.394Z,8.52
2019-03-01T20:29:56.122Z,8.51
2019-03-01T20:32:22.927Z,8.56
2019-03-01T20:34:49.665Z,8.64
2019-03-01T20:37:16.386Z,8.46
2019-03-01T20:39:43.122Z,8.39
2019-03-01T20:42:09.850Z,8.38
2019-03-01T20:44:36.570Z,8.41
2019-03-01T20:47:03.294Z,8.42
2019-03-01T20:49:30.031Z,8.35
2019-03-01T20:51:58.694Z,8.30
2019-03-01T20:54:25.816Z,8.29
2019-03-01T20:56:51.628Z,8.28
2019-03-01T20:59:17.262Z,8.34
2019-03-01T21:01:43.998Z,8.33
2019-03-01T21:04:10.742Z,8.30
2019-03-01T21:06:40.441Z,8.28
2019-03-01T21:09:06.783Z,8.24
2019-03-01T21:11:31.250Z,8.19
2019-03-01T21:13:58.022Z,8.25
2019-03-01T21:16:24.773Z,8.21
2019-03-01T21:18:51.509Z,8.21
2019-03-01T21:21:18.326Z,8.28
2019-03-01T21:23:47.643Z,8.32
2019-03-01T21:26:12.094Z,8.30
2019-03-01T21:28:38.574Z,8.31
2019-03-01T21:31:05.301Z,8.28
2019-03-01T21:33:32.046Z,8.23
2019-03-01T21:35:58.819Z,8.24
2019-03-01T21:38:25.554Z,8.23
2019-03-01T21:40:52.274Z,8.25
2019-03-01T21:43:19.894Z,8.27
2019-03-01T21:45:46.610Z,8.36
2019-03-01T21:48:13.347Z,8.34
2019-03-01T21:50:42.413Z,8.36
2019-03-01T21:53:06.885Z,8.58
2019-03-01T21:55:33.611Z,8.43
2019-03-01T21:58:03.421Z,8.38
2019-03-01T22:00:29.983Z,8.29
2019-03-01T22:02:54.329Z,8.25
2019-03-01T22:05:20.666Z,8.28
2019-03-01T22:07:47.430Z,8.27
2019-03-01T22:10:14.168Z,8.30
2019-03-01T22:12:40.909Z,8.29
2019-03-01T22:15:10.774Z,8.35
2019-03-01T22:17:37.562Z,8.29
2019-03-01T22:20:05.741Z,8.29
2019-03-01T22:22:34.176Z,8.26
2019-03-01T22:24:58.662Z,8.36
2019-03-01T22:27:25.345Z,8.28
2019-03-01T22:29:51.669Z,8.21
2019-03-01T22:32:18.467Z,8.15
2019-03-01T22:34:45.201Z,8.13
2019-03-01T22:37:11.934Z,8.09
2019-03-01T22:39:38.675Z,8.12
2019-03-01T22:42:05.394Z,8.09
2019-03-01T22:44:33.377Z,8.12
2019-03-01T22:47:00.791Z,8.14
2019-03-01T22:49:28.566Z,8.12
2019-03-01T22:51:53.010Z,8.06
2019-03-01T22:54:19.111Z,8.07
2019-03-01T22:56:48.460Z,8.06
2019-03-01T22:59:12.683Z,8.12
2019-03-01T23:01:41.186Z,8.08
2019-03-01T23:04:07.919Z,8.04
2019-03-01T23:06:34.654Z,8.03
2019-03-01T23:09:01.458Z,8.04
2019-03-01T23:11:28.750Z,8.02
2019-03-01T23:13:55.755Z,8.02
2019-03-01T23:16:21.630Z,7.95
2019-03-01T23:18:56.345Z,7.96
2019-03-01T23:21:15.090Z,7.98
2019-03-01T23:23:42.013Z,8.03
2019-03-01T23:26:08.746Z,8.06
2019-03-01T23:28:35.487Z,7.94
2019-03-01T23:31:03.650Z,7.94
2019-03-01T23:33:31.626Z,7.92
2019-03-01T23:35:55.721Z,7.88
2019-03-01T23:38:22.474Z,7.96
2019-03-01T23:40:49.189Z,7.92
2019-03-01T23:43:15.986Z,7.88
2019-03-01T23:45:42.731Z,7.90
2019-03-01T23:48:10.683Z,7.90
2019-03-01T23:50:36.225Z,7.86
2019-03-01T23:53:02.958Z,7.91
2019-03-01T23:55:29.690Z,7.93
2019-03-01T23:58:05.540Z,7.90
